Time;durP1;ratioP1;P1;durP2;ratioP2;P2;SDS_P1;SDS_P2;PMS_P1;PMS_P2;Temp;Humidity;BMP_temperature;BMP_pressure;BME280_temperature;BME280_humidity;BME280_pressure;Samples;Min_cycle;Max_cycle;Signal;HPM_P1;HPM_P2
2024/01/14 00:00:55;;;;;;;23.23;12.07;;;-0.70;99.90;;;;;;5054712;28;20679;-82
2024/01/14 00:03:22;;;;;;;26.03;12.43;;;-0.80;99.90;;;;;;5054910;28;20201;-82
2024/01/14 00:05:47;;;;;;;25.83;12.80;;;-0.70;99.90;;;;;;5055241;28;20192;-82
2024/01/14 00:08:13;;;;;;;24.83;12.10;;;-0.80;99.90;;;;;;5053141;28;20179;-83
2024/01/14 00:10:39;;;;;;;27.63;13.83;;;-0.80;99.90;;;;;;5052593;28;20190;-82
2024/01/14 00:13:04;;;;;;;26.03;13.10;;;-0.90;99.90;;;;;;5053223;28;20659;-83
2024/01/14 00:15:30;;;;;;;23.97;12.87;;;-0.90;99.90;;;;;;5054239;28;20307;-82
2024/01/14 00:17:56;;;;;;;25.03;11.50;;;-0.90;99.90;;;;;;5053201;28;20177;-83
2024/01/14 00:20:21;;;;;;;26.13;12.17;;;-0.90;99.90;;;;;;5052455;28;20180;-82
2024/01/14 00:22:47;;;;;;;24.93;12.33;;;-0.90;99.90;;;;;;5065032;28;20289;-83
2024/01/14 00:25:13;;;;;;;25.47;12.97;;;-0.90;99.90;;;;;;5054537;28;20258;-83
2024/01/14 00:27:39;;;;;;;28.20;12.80;;;-0.90;99.90;;;;;;5054245;28;20189;-82
2024/01/14 00:30:05;;;;;;;24.97;12.07;;;-0.90;99.90;;;;;;5052470;28;20550;-82
2024/01/14 00:32:30;;;;;;;26.37;12.07;;;-0.90;99.90;;;;;;5054339;28;20280;-82
2024/01/14 00:34:56;;;;;;;24.30;12.63;;;-0.90;99.90;;;;;;5052312;28;20228;-82
2024/01/14 00:37:23;;;;;;;26.33;12.87;;;-0.90;99.90;;;;;;5054164;28;20179;-83
2024/01/14 00:39:49;;;;;;;26.00;12.77;;;-0.90;99.90;;;;;;5052764;28;20211;-82
2024/01/14 00:42:15;;;;;;;28.17;13.60;;;-0.90;99.90;;;;;;5054054;28;20215;-82
2024/01/14 00:44:43;;;;;;;27.03;13.03;;;-1.00;99.90;;;;;;5052779;28;20173;-82
2024/01/14 00:47:09;;;;;;;23.83;12.37;;;-0.90;99.90;;;;;;5054146;28;20652;-82
2024/01/14 00:49:35;;;;;;;26.73;12.87;;;-1.00;99.90;;;;;;5052233;28;20246;-82
2024/01/14 00:52:00;;;;;;;27.77;12.90;;;-0.90;99.90;;;;;;5053579;28;20208;-82
2024/01/14 00:54:26;;;;;;;24.53;13.00;;;-0.90;99.90;;;;;;5053733;28;20187;-82
2024/01/14 00:56:52;;;;;;;27.10;12.57;;;-1.00;99.90;;;;;;5054165;28;20205;-82
2024/01/14 00:59:17;;;;;;;25.33;12.63;;;-1.00;99.90;;;;;;5053789;28;20191;-82
2024/01/14 01:01:43;;;;;;;25.37;12.53;;;-1.00;99.90;;;;;;5052098;28;20341;-83
2024/01/14 01:04:08;;;;;;;26.47;13.27;;;-1.10;99.90;;;;;;5052427;28;20185;-82
2024/01/14 01:06:34;;;;;;;25.40;13.30;;;-1.00;99.90;;;;;;5051955;28;20522;-82
2024/01/14 01:09:00;;;;;;;24.97;12.87;;;-1.00;99.90;;;;;;5052153;28;20180;-82
2024/01/14 01:11:26;;;;;;;26.50;12.53;;;-1.10;99.90;;;;;;5052771;28;20198;-82
2024/01/14 01:13:51;;;;;;;23.63;12.27;;;-1.10;99.90;;;;;;5053581;28;20272;-82
2024/01/14 01:16:17;;;;;;;27.43;12.37;;;-1.10;99.90;;;;;;5051696;28;20295;-82
2024/01/14 01:18:43;;;;;;;27.03;12.43;;;-1.00;99.90;;;;;;5053736;28;20275;-82
2024/01/14 01:21:08;;;;;;;27.50;12.63;;;-1.00;99.90;;;;;;5052842;28;20179;-82
2024/01/14 01:23:34;;;;;;;24.17;11.60;;;-1.00;99.90;;;;;;5052025;28;20197;-82
2024/01/14 01:26:00;;;;;;;25.60;13.07;;;-1.00;99.90;;;;;;5052658;28;20614;-82
2024/01/14 01:28:25;;;;;;;22.27;11.83;;;-1.00;99.90;;;;;;5057035;28;20181;-82
2024/01/14 01:30:51;;;;;;;23.43;11.90;;;-1.00;99.90;;;;;;5055291;28;20192;-82
2024/01/14 01:33:17;;;;;;;22.90;11.60;;;-0.90;99.90;;;;;;5056961;28;20338;-82
2024/01/14 01:35:42;;;;;;;25.93;12.20;;;-0.90;99.90;;;;;;5055384;28;20296;-82
2024/01/14 01:38:08;;;;;;;26.23;12.63;;;-1.00;99.90;;;;;;5055408;28;20176;-83
2024/01/14 01:40:33;;;;;;;26.80;13.27;;;-1.00;99.90;;;;;;5056676;28;20706;-82
2024/01/14 01:42:59;;;;;;;26.93;12.93;;;-1.00;99.90;;;;;;5055350;28;20200;-82
2024/01/14 01:45:25;;;;;;;25.33;12.83;;;-1.10;99.90;;;;;;5055603;28;20177;-83
2024/01/14 01:47:51;;;;;;;25.00;11.80;;;-1.10;99.90;;;;;;5055256;28;20271;-82
2024/01/14 01:50:17;;;;;;;25.83;12.63;;;-1.00;99.90;;;;;;5055639;28;20238;-82
2024/01/14 01:52:42;;;;;;;24.77;12.73;;;-1.10;99.90;;;;;;5056714;28;20238;-83
2024/01/14 01:55:10;;;;;;;24.07;12.03;;;-1.10;99.90;;;;;;5054709;28;20319;-83
2024/01/14 01:57:37;;;;;;;25.00;12.07;;;-1.00;99.90;;;;;;5056191;28;20179;-82
2024/01/14 02:00:03;;;;;;;25.97;12.27;;;-1.00;99.90;;;;;;5054449;28;20180;-81
2024/01/14 02:02:29;;;;;;;23.17;12.13;;;-1.10;99.90;;;;;;5054537;28;20193;-82
2024/01/14 02:04:54;;;;;;;23.87;12.53;;;-1.00;99.90;;;;;;5054842;28;20210;-82
2024/01/14 02:07:20;;;;;;;23.87;13.23;;;-1.00;99.90;;;;;;5054891;28;20188;-82
2024/01/14 02:09:46;;;;;;;24.90;12.53;;;-1.00;99.90;;;;;;5054807;28;20279;-82
2024/01/14 02:12:11;;;;;;;22.60;12.23;;;-1.00;99.90;;;;;;5054529;28;20196;-82
2024/01/14 02:14:37;;;;;;;25.33;13.17;;;-1.10;99.90;;;;;;5055960;28;20650;-83
2024/01/14 02:17:03;;;;;;;26.77;12.60;;;-1.10;99.90;;;;;;5054406;28;20179;-82
2024/01/14 02:19:28;;;;;;;25.90;12.70;;;-1.10;99.90;;;;;;5055870;28;20253;-82
2024/01/14 02:22:03;;;;;;;27.83;13.43;;;-1.10;99.90;;;;;;5055686;28;20202;-82
2024/01/14 02:24:34;;;;;;;23.20;11.73;;;-1.10;99.90;;;;;;5054382;28;20164;-82
2024/01/14 02:27:00;;;;;;;26.13;12.50;;;-1.10;99.90;;;;;;5055703;28;20671;-82
2024/01/14 02:29:28;;;;;;;26.77;13.30;;;-1.10;99.90;;;;;;5054398;28;20205;-83
2024/01/14 02:31:54;;;;;;;24.63;12.87;;;-1.10;99.90;;;;;;5053816;28;20204;-82
2024/01/14 02:34:20;;;;;;;26.57;12.97;;;-1.10;99.90;;;;;;5054178;28;20178;-82
2024/01/14 02:36:46;;;;;;;24.57;12.37;;;-1.10;99.90;;;;;;5053662;28;20177;-82
2024/01/14 02:39:11;;;;;;;25.53;12.67;;;-1.10;99.90;;;;;;5055433;28;20191;-82
2024/01/14 02:41:40;;;;;;;25.80;13.53;;;-1.10;99.90;;;;;;5055482;28;20177;-82
2024/01/14 02:44:05;;;;;;;29.87;13.47;;;-1.20;99.90;;;;;;5053639;28;20182;-82
2024/01/14 02:46:31;;;;;;;25.93;12.43;;;-1.10;99.90;;;;;;5055340;28;20267;-82
2024/01/14 02:48:57;;;;;;;26.93;13.03;;;-1.10;99.90;;;;;;5054016;28;20262;-82
2024/01/14 02:51:23;;;;;;;24.73;13.17;;;-1.10;99.90;;;;;;5052990;28;20342;-82
2024/01/14 02:53:48;;;;;;;26.00;12.43;;;-1.20;99.90;;;;;;5055250;28;20188;-83
2024/01/14 02:56:14;;;;;;;23.20;12.00;;;-1.20;99.90;;;;;;5055053;28;20211;-82
2024/01/14 02:58:39;;;;;;;24.83;11.97;;;-1.10;99.90;;;;;;5053502;28;20173;-82
2024/01/14 03:01:05;;;;;;;24.10;12.27;;;-1.20;99.90;;;;;;5054552;28;20169;-82
2024/01/14 03:03:31;;;;;;;22.80;12.27;;;-1.20;99.90;;;;;;5053363;28;20330;-83
2024/01/14 03:05:57;;;;;;;25.53;12.83;;;-1.30;99.90;;;;;;5053596;28;20203;-82
2024/01/14 03:08:22;;;;;;;24.60;12.10;;;-1.20;99.90;;;;;;5054982;28;20191;-82
2024/01/14 03:10:48;;;;;;;25.40;11.60;;;-1.20;99.90;;;;;;5052901;28;20183;-82
2024/01/14 03:13:15;;;;;;;22.67;11.37;;;-1.20;99.90;;;;;;5053554;28;20731;-82
2024/01/14 03:15:44;;;;;;;24.20;11.57;;;-1.30;99.90;;;;;;5054772;28;20207;-82
2024/01/14 03:18:11;;;;;;;24.47;11.57;;;-1.20;99.90;;;;;;5053365;28;20199;-82
2024/01/14 03:20:37;;;;;;;24.10;9.97;;;-1.20;99.90;;;;;;5052473;28;20182;-82
2024/01/14 03:23:03;;;;;;;23.73;12.00;;;-1.20;99.90;;;;;;5053173;28;20189;-83
2024/01/14 03:25:29;;;;;;;26.33;12.30;;;-1.20;99.90;;;;;;5053246;28;20204;-82
2024/01/14 03:27:55;;;;;;;22.73;11.10;;;-1.20;99.90;;;;;;5053025;28;20238;-82
2024/01/14 03:30:20;;;;;;;23.07;11.33;;;-1.20;99.90;;;;;;5053914;28;20216;-82
2024/01/14 03:32:46;;;;;;;22.00;11.40;;;-1.20;99.90;;;;;;5054273;28;20195;-82
2024/01/14 03:35:12;;;;;;;21.97;10.77;;;-1.20;99.90;;;;;;5052970;28;20204;-82
2024/01/14 03:37:37;;;;;;;22.33;10.83;;;-1.20;99.90;;;;;;5054340;28;20640;-82
2024/01/14 03:40:03;;;;;;;21.40;10.93;;;-1.20;99.90;;;;;;5053949;28;20189;-82
2024/01/14 03:42:30;;;;;;;22.77;11.63;;;-1.20;99.90;;;;;;5053883;28;20189;-83
2024/01/14 03:44:56;;;;;;;22.47;11.50;;;-1.10;99.90;;;;;;5054023;28;20199;-82
2024/01/14 03:47:22;;;;;;;20.97;10.33;;;-1.20;99.90;;;;;;5053759;28;20176;-82
2024/01/14 03:49:47;;;;;;;27.37;12.40;;;-1.20;99.90;;;;;;5051624;28;20689;-82
2024/01/14 03:52:13;;;;;;;23.23;11.10;;;-1.20;99.90;;;;;;5053348;28;20227;-82
2024/01/14 03:54:38;;;;;;;21.33;10.60;;;-1.20;99.90;;;;;;5054091;28;20180;-82
2024/01/14 03:57:04;;;;;;;23.30;11.63;;;-1.10;99.90;;;;;;5053907;28;20215;-82
2024/01/14 03:59:30;;;;;;;20.13;10.83;;;-1.10;99.90;;;;;;5053845;28;20172;-82
2024/01/14 04:01:56;;;;;;;22.43;11.43;;;-1.10;99.90;;;;;;5053717;28;20239;-82
2024/01/14 04:04:21;;;;;;;23.77;11.63;;;-1.10;99.90;;;;;;5053548;28;20176;-82
2024/01/14 04:06:47;;;;;;;21.30;10.87;;;-1.10;99.90;;;;;;5052336;28;20183;-83
2024/01/14 04:09:13;;;;;;;24.57;12.03;;;-1.10;99.90;;;;;;5058299;28;20184;-82
2024/01/14 04:11:38;;;;;;;25.60;12.03;;;-1.10;99.90;;;;;;5058949;28;20229;-81
2024/01/14 04:14:04;;;;;;;25.03;12.53;;;-1.10;99.90;;;;;;5060896;28;20213;-82
2024/01/14 04:16:40;;;;;;;22.80;10.70;;;-1.10;99.90;;;;;;5060576;28;20213;-83
2024/01/14 04:19:06;;;;;;;23.60;11.53;;;-1.10;99.90;;;;;;5060375;28;20173;-83
2024/01/14 04:21:32;;;;;;;24.20;12.03;;;-1.10;99.90;;;;;;5058317;28;20186;-83
2024/01/14 04:24:04;;;;;;;25.33;11.73;;;-1.10;99.90;;;;;;5060230;28;20180;-83
2024/01/14 04:26:30;;;;;;;21.03;10.97;;;-1.10;99.90;;;;;;5060579;28;20160;-83
2024/01/14 04:28:56;;;;;;;23.00;12.00;;;-1.10;99.90;;;;;;5060239;28;20183;-82
2024/01/14 04:31:21;;;;;;;24.80;12.47;;;-1.10;99.90;;;;;;5058904;28;20546;-83
2024/01/14 04:33:47;;;;;;;24.37;12.20;;;-1.20;99.90;;;;;;5058822;28;20238;-83
2024/01/14 04:36:14;;;;;;;27.30;11.97;;;-1.20;99.90;;;;;;5057823;28;20199;-82
2024/01/14 04:38:40;;;;;;;26.30;12.33;;;-1.10;99.90;;;;;;5059492;28;20659;-83
2024/01/14 04:41:06;;;;;;;26.13;11.80;;;-1.10;99.90;;;;;;5058901;28;20172;-82
2024/01/14 04:43:32;;;;;;;23.30;11.60;;;-1.10;99.90;;;;;;5058753;28;20208;-83
2024/01/14 04:45:57;;;;;;;24.17;11.33;;;-1.10;99.90;;;;;;5057449;28;20176;-83
2024/01/14 04:48:23;;;;;;;26.90;12.93;;;-1.20;99.90;;;;;;5058347;28;20550;-81
2024/01/14 04:50:50;;;;;;;26.97;12.27;;;-1.20;99.90;;;;;;5055898;28;20589;-81
2024/01/14 04:53:16;;;;;;;24.60;11.53;;;-1.20;99.90;;;;;;5057156;28;20219;-82
2024/01/14 04:55:41;;;;;;;27.57;12.27;;;-1.20;99.90;;;;;;5057104;28;20579;-83
2024/01/14 04:58:07;;;;;;;25.07;11.73;;;-1.20;99.90;;;;;;5058627;28;20187;-82
2024/01/14 05:00:32;;;;;;;24.90;12.03;;;-1.20;99.90;;;;;;5059281;28;20282;-82
2024/01/14 05:02:58;;;;;;;24.50;11.30;;;-1.20;99.90;;;;;;5062188;28;20336;-82
2024/01/14 05:05:23;;;;;;;24.30;11.53;;;-1.20;99.90;;;;;;5059986;28;20184;-83
2024/01/14 05:07:49;;;;;;;20.97;10.73;;;-1.10;99.90;;;;;;5060372;28;20191;-81
2024/01/14 05:10:15;;;;;;;22.80;11.43;;;-1.20;99.90;;;;;;5059744;28;20180;-82
2024/01/14 05:12:40;;;;;;;29.37;12.73;;;-1.10;99.90;;;;;;5061088;28;20283;-82
2024/01/14 05:15:06;;;;;;;19.07;8.97;;;-1.20;99.90;;;;;;5060212;28;20196;-82
2024/01/14 05:17:32;;;;;;;26.63;11.83;;;-1.20;99.90;;;;;;5060215;28;20184;-82
2024/01/14 05:19:57;;;;;;;26.17;12.57;;;-1.20;99.90;;;;;;5061601;28;20173;-81
2024/01/14 05:22:23;;;;;;;26.03;11.93;;;-1.20;99.90;;;;;;5061055;28;20188;-82
2024/01/14 05:24:51;;;;;;;29.87;12.40;;;-1.20;99.90;;;;;;5060029;28;20660;-83
2024/01/14 05:27:17;;;;;;;23.80;11.43;;;-1.20;99.90;;;;;;5060432;28;20180;-82
2024/01/14 05:29:45;;;;;;;27.80;12.33;;;-1.20;99.90;;;;;;5059458;28;20177;-81
2024/01/14 05:32:15;;;;;;;28.87;11.77;;;-1.30;99.90;;;;;;5060907;28;20206;-82
2024/01/14 05:34:41;;;;;;;25.77;12.03;;;-1.20;99.90;;;;;;5061076;28;20212;-81
2024/01/14 05:37:07;;;;;;;27.57;11.77;;;-1.30;99.90;;;;;;5060982;28;20182;-82
2024/01/14 05:39:34;;;;;;;23.30;11.23;;;-1.30;99.90;;;;;;5059576;28;20531;-83
2024/01/14 05:41:59;;;;;;;24.70;11.90;;;-1.30;99.90;;;;;;5059163;28;20192;-82
2024/01/14 05:44:25;;;;;;;26.80;11.60;;;-1.30;99.90;;;;;;5060076;28;20558;-83
2024/01/14 05:46:52;;;;;;;25.53;11.87;;;-1.30;99.90;;;;;;5059549;28;20196;-82
2024/01/14 05:49:18;;;;;;;26.87;12.00;;;-1.30;99.90;;;;;;5058737;28;20180;-82
2024/01/14 05:51:43;;;;;;;25.37;11.83;;;-1.30;99.90;;;;;;5060222;28;20202;-82
2024/01/14 05:54:09;;;;;;;26.13;11.63;;;-1.30;99.90;;;;;;5059129;28;20195;-82
2024/01/14 05:56:34;;;;;;;26.87;12.10;;;-1.30;99.90;;;;;;5058284;28;20204;-83
2024/01/14 05:59:00;;;;;;;25.07;11.80;;;-1.30;99.90;;;;;;5059934;28;20637;-83
2024/01/14 06:01:27;;;;;;;23.97;11.00;;;-1.30;99.90;;;;;;5059473;28;20182;-83
2024/01/14 06:03:52;;;;;;;23.17;11.67;;;-1.30;99.90;;;;;;5060126;28;20557;-82
2024/01/14 06:06:18;;;;;;;25.77;11.20;;;-1.30;99.90;;;;;;5058277;28;20182;-82
2024/01/14 06:08:44;;;;;;;26.03;11.50;;;-1.30;99.90;;;;;;5058791;28;20184;-82
2024/01/14 06:11:10;;;;;;;23.30;11.47;;;-1.30;99.90;;;;;;5058933;28;20208;-82
2024/01/14 06:13:36;;;;;;;23.13;10.63;;;-1.30;99.90;;;;;;5058958;28;20278;-82
2024/01/14 06:16:02;;;;;;;22.50;11.20;;;-1.30;99.90;;;;;;5058272;28;20192;-84
2024/01/14 06:18:28;;;;;;;22.80;11.00;;;-1.30;99.90;;;;;;5056384;28;20178;-84
2024/01/14 06:20:55;;;;;;;23.63;11.27;;;-1.20;99.90;;;;;;5055893;28;20183;-84
2024/01/14 06:23:21;;;;;;;21.03;10.87;;;-1.30;99.90;;;;;;5055974;28;20192;-84
2024/01/14 06:25:47;;;;;;;27.07;11.93;;;-1.30;99.90;;;;;;5058417;28;20198;-84
2024/01/14 06:28:13;;;;;;;20.97;9.93;;;-1.30;99.90;;;;;;5057852;28;20198;-83
2024/01/14 06:30:38;;;;;;;23.57;10.77;;;-1.30;99.90;;;;;;5057649;28;20270;-84
2024/01/14 06:33:04;;;;;;;26.27;11.27;;;-1.40;99.90;;;;;;5056779;28;20196;-84
2024/01/14 06:35:29;;;;;;;26.13;11.30;;;-1.30;99.90;;;;;;5055546;28;20208;-79
2024/01/14 06:37:55;;;;;;;22.40;10.73;;;-1.40;99.90;;;;;;5057073;28;20174;-84
2024/01/14 06:40:20;;;;;;;21.93;10.73;;;-1.40;99.90;;;;;;5056911;28;20160;-84
2024/01/14 06:42:46;;;;;;;24.43;11.10;;;-1.30;99.90;;;;;;5056582;28;20202;-84
2024/01/14 06:45:12;;;;;;;23.70;11.67;;;-1.30;99.90;;;;;;5055396;28;20181;-83
2024/01/14 06:47:38;;;;;;;26.17;11.47;;;-1.40;99.90;;;;;;5055556;28;20180;-83
2024/01/14 06:50:05;;;;;;;27.23;11.80;;;-1.40;99.90;;;;;;5055901;28;20175;-83
2024/01/14 06:52:30;;;;;;;27.37;12.17;;;-1.40;99.90;;;;;;5054988;28;20297;-83
2024/01/14 06:54:57;;;;;;;23.93;11.10;;;-1.40;99.90;;;;;;5054865;28;20312;-84
2024/01/14 06:57:22;;;;;;;24.70;11.67;;;-1.40;99.90;;;;;;5056444;28;20203;-83
2024/01/14 06:59:48;;;;;;;24.60;10.50;;;-1.30;99.90;;;;;;5056306;28;20203;-84
2024/01/14 07:02:14;;;;;;;23.37;10.80;;;-1.30;99.90;;;;;;5056259;28;20200;-84
2024/01/14 07:04:40;;;;;;;25.13;11.47;;;-1.30;99.90;;;;;;5055040;28;20173;-82
2024/01/14 07:07:06;;;;;;;22.87;10.30;;;-1.30;99.90;;;;;;5054333;28;20215;-84
2024/01/14 07:09:35;;;;;;;25.70;12.40;;;-1.40;99.90;;;;;;5054872;28;20528;-83
2024/01/14 07:12:00;;;;;;;22.57;10.97;;;-1.40;99.90;;;;;;5054218;28;20208;-81
2024/01/14 07:14:26;;;;;;;22.60;10.93;;;-1.40;99.90;;;;;;5053220;28;20172;-81
2024/01/14 07:16:52;;;;;;;23.97;12.10;;;-1.40;99.90;;;;;;5053098;28;20275;-81
2024/01/14 07:19:17;;;;;;;20.67;10.00;;;-1.30;99.90;;;;;;5052948;28;20175;-79
2024/01/14 07:21:43;;;;;;;19.63;9.83;;;-1.20;99.90;;;;;;5053413;28;20246;-84
2024/01/14 07:24:08;;;;;;;19.83;10.10;;;-1.20;99.90;;;;;;5054747;28;20173;-83
2024/01/14 07:26:34;;;;;;;19.93;9.73;;;-1.20;99.90;;;;;;5053597;28;20653;-83
2024/01/14 07:29:00;;;;;;;20.13;10.07;;;-1.30;99.90;;;;;;5054013;28;20177;-82
2024/01/14 07:31:30;;;;;;;17.60;9.77;;;-1.30;99.90;;;;;;5052606;28;20172;-82
2024/01/14 07:33:56;;;;;;;21.37;10.40;;;-1.30;99.90;;;;;;5053233;28;20181;-80
2024/01/14 07:36:21;;;;;;;21.50;10.40;;;-1.30;99.90;;;;;;5053958;28;20202;-80
2024/01/14 07:38:47;;;;;;;21.43;10.27;;;-1.30;99.90;;;;;;5052549;28;20197;-80
2024/01/14 07:41:13;;;;;;;19.60;9.40;;;-1.30;99.90;;;;;;5053741;28;20172;-83
2024/01/14 07:43:42;;;;;;;21.47;9.67;;;-1.30;99.90;;;;;;5055401;28;20259;-82
2024/01/14 07:46:08;;;;;;;22.03;10.77;;;-1.30;99.90;;;;;;5053408;28;20195;-83
2024/01/14 07:48:34;;;;;;;21.70;9.70;;;-1.30;99.90;;;;;;5054702;28;20176;-82
2024/01/14 07:51:01;;;;;;;20.97;9.87;;;-1.30;99.90;;;;;;5053901;28;20177;-82
2024/01/14 07:53:26;;;;;;;18.97;9.47;;;-1.30;99.90;;;;;;5053961;28;20212;-82
2024/01/14 07:55:52;;;;;;;21.10;10.50;;;-1.30;99.90;;;;;;5052541;28;20265;-82
2024/01/14 07:58:18;;;;;;;21.00;9.80;;;-1.30;99.90;;;;;;5052978;28;20172;-81
2024/01/14 08:00:44;;;;;;;18.90;9.80;;;-1.30;99.90;;;;;;5052139;28;20650;-82
2024/01/14 08:03:10;;;;;;;19.80;10.07;;;-1.30;99.90;;;;;;5053987;28;20193;-81
2024/01/14 08:05:37;;;;;;;20.60;9.70;;;-1.30;99.90;;;;;;5053800;28;20175;-82
2024/01/14 08:08:06;;;;;;;21.37;10.20;;;-1.30;99.90;;;;;;5052570;28;20180;-82
2024/01/14 08:10:32;;;;;;;22.67;10.77;;;-1.30;99.90;;;;;;5052111;28;20171;-81
2024/01/14 08:12:58;;;;;;;19.53;8.97;;;-1.40;99.90;;;;;;5051896;28;20197;-78
2024/01/14 08:15:24;;;;;;;23.57;9.77;;;-1.40;99.90;;;;;;5054142;28;20231;-81
2024/01/14 08:17:50;;;;;;;22.83;10.80;;;-1.30;99.90;;;;;;5053781;28;20202;-82
2024/01/14 08:20:16;;;;;;;22.43;10.10;;;-1.40;99.90;;;;;;5052187;28;20183;-83
2024/01/14 08:22:41;;;;;;;21.77;10.77;;;-1.40;99.90;;;;;;5052397;28;20203;-82
2024/01/14 08:25:07;;;;;;;22.97;10.40;;;-1.30;99.90;;;;;;5051976;28;20185;-82
2024/01/14 08:27:33;;;;;;;22.80;10.63;;;-1.30;99.90;;;;;;5048538;28;20175;-80
2024/01/14 08:29:59;;;;;;;25.27;10.60;;;-1.30;99.90;;;;;;5051042;28;20184;-83
2024/01/14 08:32:25;;;;;;;24.33;10.90;;;-1.40;99.90;;;;;;5051081;28;20202;-82
2024/01/14 08:34:50;;;;;;;24.07;11.27;;;-1.30;99.90;;;;;;5050649;28;20180;-82
2024/01/14 08:37:16;;;;;;;24.80;10.97;;;-1.40;99.90;;;;;;5053329;28;20180;-82
2024/01/14 08:39:42;;;;;;;25.30;11.20;;;-1.40;99.90;;;;;;5052593;28;20190;-82
2024/01/14 08:42:08;;;;;;;23.47;10.67;;;-1.40;99.90;;;;;;5051874;28;20196;-81
2024/01/14 08:44:33;;;;;;;24.83;10.50;;;-1.40;99.90;;;;;;5052640;28;20184;-82
2024/01/14 08:46:59;;;;;;;24.43;11.17;;;-1.40;99.90;;;;;;5051514;28;20186;-82
2024/01/14 08:49:29;;;;;;;23.90;10.67;;;-1.40;99.90;;;;;;5052728;28;20176;-82
2024/01/14 08:51:55;;;;;;;23.17;10.30;;;-1.40;99.90;;;;;;5052388;28;20216;-82
2024/01/14 08:54:21;;;;;;;20.77;9.47;;;-1.40;99.90;;;;;;5052908;28;20175;-82
2024/01/14 08:56:46;;;;;;;21.47;9.93;;;-1.40;99.90;;;;;;5053150;28;20208;-82
2024/01/14 08:59:12;;;;;;;23.10;10.30;;;-1.40;99.90;;;;;;5052165;28;20256;-84
2024/01/14 09:01:37;;;;;;;20.90;10.43;;;-1.40;99.90;;;;;;5051976;28;20190;-81
2024/01/14 09:04:04;;;;;;;20.47;10.47;;;-1.40;99.90;;;;;;5051494;28;20653;-82
2024/01/14 09:06:29;;;;;;;21.33;10.80;;;-1.30;99.90;;;;;;5050941;28;20180;-82
2024/01/14 09:08:55;;;;;;;24.13;11.23;;;-1.30;99.90;;;;;;5052750;28;20267;-82
2024/01/14 09:11:20;;;;;;;24.10;10.40;;;-1.30;99.90;;;;;;5050573;28;20180;-83
2024/01/14 09:13:46;;;;;;;23.73;10.63;;;-1.20;99.90;;;;;;5052453;28;20184;-82
2024/01/14 09:16:12;;;;;;;24.33;11.73;;;-1.20;99.90;;;;;;5050925;28;20214;-82
2024/01/14 09:18:38;;;;;;;23.20;11.03;;;-1.10;99.90;;;;;;5049732;28;20184;-80
2024/01/14 09:21:04;;;;;;;22.80;9.70;;;-1.10;99.90;;;;;;5050768;28;20602;-83
2024/01/14 09:23:31;;;;;;;21.67;10.27;;;-1.10;99.90;;;;;;5051654;28;20200;-83
2024/01/14 09:25:57;;;;;;;20.80;9.37;;;-1.00;99.90;;;;;;5046480;28;20193;-83
2024/01/14 09:28:25;;;;;;;22.83;9.70;;;-1.00;99.90;;;;;;5041330;28;20577;-82
2024/01/14 09:30:51;;;;;;;23.73;11.47;;;-1.00;99.90;;;;;;5035396;28;20185;-83
2024/01/14 09:33:17;;;;;;;24.00;11.90;;;-0.90;99.90;;;;;;5041347;28;20246;-82
2024/01/14 09:35:43;;;;;;;25.53;10.27;;;-0.90;99.90;;;;;;5050251;28;20246;-83
2024/01/14 09:38:09;;;;;;;22.93;11.53;;;-1.00;99.90;;;;;;5050656;28;20181;-82
2024/01/14 09:40:38;;;;;;;21.40;10.40;;;-0.90;99.90;;;;;;5050299;28;20176;-82
2024/01/14 09:43:06;;;;;;;20.53;10.13;;;-0.90;99.90;;;;;;5050242;28;20205;-84
2024/01/14 09:45:35;;;;;;;21.17;9.97;;;-0.90;99.90;;;;;;5051431;28;20174;-82
2024/01/14 09:48:01;;;;;;;22.23;10.37;;;-0.90;99.90;;;;;;5054617;28;20649;-81
2024/01/14 09:50:27;;;;;;;21.83;10.80;;;-0.90;99.90;;;;;;5043788;28;20273;-83
2024/01/14 09:52:57;;;;;;;24.23;10.33;;;-0.90;99.90;;;;;;5049640;28;20209;-83
2024/01/14 09:55:24;;;;;;;23.40;11.40;;;-0.80;99.90;;;;;;5053464;28;20200;-83
2024/01/14 09:57:51;;;;;;;23.13;10.93;;;-0.80;99.90;;;;;;5033717;28;20189;-83
2024/01/14 10:00:23;;;;;;;25.70;10.97;;;-0.80;99.90;;;;;;5034291;28;20182;-82
2024/01/14 10:02:49;;;;;;;20.10;9.87;;;-0.90;99.90;;;;;;5033637;28;20189;-82
2024/01/14 10:05:18;;;;;;;22.17;10.43;;;-0.90;99.90;;;;;;5033802;28;20182;-83
2024/01/14 10:07:46;;;;;;;22.13;10.17;;;-0.90;99.90;;;;;;5036418;28;20179;-80
2024/01/14 10:10:12;;;;;;;22.90;10.00;;;-0.80;99.90;;;;;;5052709;28;20184;-83
2024/01/14 10:12:37;;;;;;;20.47;10.67;;;-0.90;99.90;;;;;;5054283;28;20208;-81
2024/01/14 10:15:03;;;;;;;22.03;10.37;;;-0.90;99.90;;;;;;5054417;28;20228;-82
2024/01/14 10:17:29;;;;;;;26.70;10.80;;;-0.90;99.90;;;;;;5053178;28;20177;-82
2024/01/14 10:19:57;;;;;;;21.97;10.57;;;-0.90;99.90;;;;;;5054706;28;20173;-81
2024/01/14 10:22:25;;;;;;;21.80;10.43;;;-0.90;99.90;;;;;;5054732;28;20208;-82
2024/01/14 10:24:54;;;;;;;22.43;9.73;;;-0.90;99.90;;;;;;5054147;28;20180;-79
2024/01/14 10:27:21;;;;;;;22.73;10.30;;;-0.80;99.90;;;;;;5055259;28;20694;-82
2024/01/14 10:29:48;;;;;;;21.87;10.27;;;-0.90;99.90;;;;;;5054965;28;20177;-81
2024/01/14 10:32:13;;;;;;;21.97;10.43;;;-0.90;99.90;;;;;;5053249;28;20192;-81
2024/01/14 10:34:40;;;;;;;29.00;12.17;;;-0.90;99.90;;;;;;5055010;28;20649;-82
2024/01/14 10:37:06;;;;;;;22.17;10.50;;;-0.90;99.90;;;;;;5053616;28;20176;-82
2024/01/14 10:39:32;;;;;;;25.07;10.90;;;-0.90;99.90;;;;;;5055139;28;20534;-82
2024/01/14 10:41:59;;;;;;;24.17;10.57;;;-1.00;99.90;;;;;;5054561;28;20200;-82
2024/01/14 10:44:25;;;;;;;29.00;11.87;;;-0.90;99.90;;;;;;5053740;28;20185;-82
2024/01/14 10:46:53;;;;;;;26.20;11.40;;;-1.00;99.90;;;;;;5053725;28;20660;-82
2024/01/14 10:49:26;;;;;;;26.63;11.67;;;-1.00;99.90;;;;;;5053212;28;20188;-81
2024/01/14 10:52:10;;;;;;;29.73;12.50;;;-1.00;99.90;;;;;;5054577;28;20279;-81
2024/01/14 10:54:43;;;;;;;28.53;12.67;;;-1.10;99.90;;;;;;5054588;28;20716;-82
2024/01/14 10:57:34;;;;;;;28.30;12.43;;;-1.10;99.90;;;;;;5053097;28;20187;-82
2024/01/14 11:00:10;;;;;;;29.63;12.40;;;-1.10;99.90;;;;;;5054015;28;20168;-79
2024/01/14 11:02:37;;;;;;;29.90;12.60;;;-1.10;99.90;;;;;;5054466;28;20200;-84
2024/01/14 11:05:04;;;;;;;32.33;13.97;;;-1.10;99.90;;;;;;5052847;28;20176;-82
2024/01/14 11:07:34;;;;;;;30.80;13.40;;;-1.10;99.90;;;;;;5054423;28;20182;-83
2024/01/14 11:10:07;;;;;;;28.57;12.73;;;-1.10;99.90;;;;;;5052667;28;20219;-80
2024/01/14 11:12:51;;;;;;;29.03;12.47;;;-1.10;99.90;;;;;;5053886;28;20248;-83
2024/01/14 11:15:29;;;;;;;33.27;12.90;;;-1.10;99.90;;;;;;5055174;28;20196;-82
2024/01/14 11:18:03;;;;;;;35.13;13.10;;;-1.10;99.90;;;;;;5054032;28;20185;-84
2024/01/14 11:20:32;;;;;;;34.90;13.07;;;-1.10;99.90;;;;;;5054558;28;20161;-85
2024/01/14 11:22:58;;;;;;;36.70;12.87;;;-1.10;99.90;;;;;;5055869;28;20204;-83
2024/01/14 11:25:33;;;;;;;28.73;12.37;;;-1.20;99.90;;;;;;5053246;28;20368;-83
2024/01/14 11:28:05;;;;;;;31.33;13.27;;;-1.20;99.90;;;;;;5053149;28;20165;-83
2024/01/14 11:30:55;;;;;;;31.43;13.57;;;-1.30;99.90;;;;;;5053770;28;20260;-81
2024/01/14 11:33:42;;;;;;;32.30;13.00;;;-1.20;99.90;;;;;;5052897;28;20199;-83
2024/01/14 11:36:08;;;;;;;34.07;13.33;;;-1.30;99.90;;;;;;5052486;28;20254;-83
2024/01/14 11:38:34;;;;;;;30.67;12.60;;;-1.30;99.90;;;;;;5052976;28;20175;-80
2024/01/14 11:41:24;;;;;;;31.83;12.87;;;-1.40;99.90;;;;;;5052353;28;20176;-79
2024/01/14 11:43:52;;;;;;;36.23;13.03;;;-1.30;99.90;;;;;;5052501;28;20200;-81
2024/01/14 11:46:36;;;;;;;32.63;13.47;;;-1.30;99.90;;;;;;5051278;28;20193;-85
2024/01/14 11:49:06;;;;;;;35.33;13.43;;;-1.30;99.90;;;;;;5054151;28;20205;-79
2024/01/14 11:51:32;;;;;;;39.37;15.10;;;-0.90;99.90;;;;;;5059787;28;20199;-77
2024/01/14 11:53:59;;;;;;;29.03;13.23;;;-0.10;99.90;;;;;;5061900;28;20180;-79
2024/01/14 11:56:29;;;;;;;27.07;11.77;;;-0.50;99.90;;;;;;5059870;28;20210;-78
2024/01/14 11:58:58;;;;;;;30.33;12.57;;;-0.50;99.90;;;;;;5051890;28;20531;-83
2024/01/14 12:01:26;;;;;;;32.27;12.53;;;-0.90;99.90;;;;;;5050925;28;20197;-83
2024/01/14 12:04:02;;;;;;;29.07;12.20;;;-1.10;99.90;;;;;;5052996;28;20702;-82
2024/01/14 12:06:39;;;;;;;30.10;12.63;;;-1.20;99.90;;;;;;5053386;28;20211;-82
2024/01/14 12:09:06;;;;;;;33.90;13.20;;;-1.30;99.90;;;;;;5052425;28;20180;-83
2024/01/14 12:11:32;;;;;;;29.87;12.77;;;-1.30;99.90;;;;;;5051726;28;20601;-83
2024/01/14 12:13:58;;;;;;;32.63;13.23;;;-1.30;99.90;;;;;;5051435;28;20671;-83
2024/01/14 12:16:23;;;;;;;36.40;14.87;;;-1.40;99.90;;;;;;5052911;28;20208;-83
2024/01/14 12:18:49;;;;;;;34.60;13.73;;;-1.40;99.90;;;;;;5051998;28;20176;-82
2024/01/14 12:21:17;;;;;;;31.47;12.37;;;-1.30;99.90;;;;;;5052518;28;20187;-83
2024/01/14 12:23:43;;;;;;;31.37;13.00;;;-1.30;99.90;;;;;;5051299;28;20755;-83
2024/01/14 12:26:09;;;;;;;31.73;12.47;;;-1.30;99.90;;;;;;5051146;28;20310;-83